sensor_id;sensor_type;location;lat;lon;timestamp;temperature;humidity
24636;DHT22;12772;49.794;10.024;2023-04-24T00:00:19;14.40;58.40
24636;DHT22;12772;49.794;10.024;2023-04-24T00:04:21;14.30;57.90
24636;DHT22;12772;49.794;10.024;2023-04-24T00:08:26;14.30;57.60
24636;DHT22;12772;49.794;10.024;2023-04-24T00:12:29;14.30;57.70
24636;DHT22;12772;49.794;10.024;2023-04-24T00:16:32;14.30;57.60
24636;DHT22;12772;49.794;10.024;2023-04-24T00:20:34;14.20;57.50
24636;DHT22;12772;49.794;10.024;2023-04-24T00:24:37;14.20;57.50
24636;DHT22;12772;49.794;10.024;2023-04-24T00:28:39;14.20;57.30
24636;DHT22;12772;49.794;10.024;2023-04-24T00:32:41;14.20;57.10
24636;DHT22;12772;49.794;10.024;2023-04-24T00:36:43;14.30;57.20
24636;DHT22;12772;49.794;10.024;2023-04-24T00:40:46;14.20;56.50
24636;DHT22;12772;49.794;10.024;2023-04-24T00:44:49;14.20;56.10
24636;DHT22;12772;49.794;10.024;2023-04-24T00:48:51;14.20;56.00
24636;DHT22;12772;49.794;10.024;2023-04-24T00:52:53;14.20;55.80
24636;DHT22;12772;49.794;10.024;2023-04-24T00:56:55;14.10;55.90
24636;DHT22;12772;49.794;10.024;2023-04-24T01:00:58;14.10;55.60
24636;DHT22;12772;49.794;10.024;2023-04-24T01:05:03;14.10;55.50
24636;DHT22;12772;49.794;10.024;2023-04-24T01:09:06;14.10;55.60
24636;DHT22;12772;49.794;10.024;2023-04-24T01:13:09;14.20;55.30
24636;DHT22;12772;49.794;10.024;2023-04-24T01:17:12;14.20;55.20
24636;DHT22;12772;49.794;10.024;2023-04-24T01:21:15;14.10;55.80
24636;DHT22;12772;49.794;10.024;2023-04-24T01:25:18;14.10;55.20
24636;DHT22;12772;49.794;10.024;2023-04-24T01:29:21;14.10;55.40
24636;DHT22;12772;49.794;10.024;2023-04-24T01:33:23;14.10;55.70
24636;DHT22;12772;49.794;10.024;2023-04-24T01:37:25;14.10;55.80
24636;DHT22;12772;49.794;10.024;2023-04-24T01:41:29;14.00;55.90
24636;DHT22;12772;49.794;10.024;2023-04-24T01:45:32;14.00;56.00
24636;DHT22;12772;49.794;10.024;2023-04-24T01:49:34;14.10;56.10
24636;DHT22;12772;49.794;10.024;2023-04-24T01:53:36;14.10;56.10
24636;DHT22;12772;49.794;10.024;2023-04-24T01:57:39;14.10;56.00
24636;DHT22;12772;49.794;10.024;2023-04-24T02:01:41;14.10;55.50
24636;DHT22;12772;49.794;10.024;2023-04-24T02:05:44;14.10;55.60
24636;DHT22;12772;49.794;10.024;2023-04-24T02:09:46;14.10;55.60
24636;DHT22;12772;49.794;10.024;2023-04-24T02:13:48;14.10;55.60
24636;DHT22;12772;49.794;10.024;2023-04-24T02:17:51;14.10;55.80
24636;DHT22;12772;49.794;10.024;2023-04-24T02:21:53;14.00;55.80
24636;DHT22;12772;49.794;10.024;2023-04-24T02:25:55;14.00;55.90
24636;DHT22;12772;49.794;10.024;2023-04-24T02:29:57;14.00;55.90
24636;DHT22;12772;49.794;10.024;2023-04-24T02:33:59;14.30;56.00
24636;DHT22;12772;49.794;10.024;2023-04-24T02:38:04;14.60;56.30
24636;DHT22;12772;49.794;10.024;2023-04-24T02:42:06;14.10;55.60
24636;DHT22;12772;49.794;10.024;2023-04-24T02:46:08;14.10;55.40
24636;DHT22;12772;49.794;10.024;2023-04-24T02:50:10;14.10;55.40
24636;DHT22;12772;49.794;10.024;2023-04-24T02:54:12;14.10;55.40
24636;DHT22;12772;49.794;10.024;2023-04-24T02:58:15;14.00;55.40
24636;DHT22;12772;49.794;10.024;2023-04-24T03:02:18;14.00;55.50
24636;DHT22;12772;49.794;10.024;2023-04-24T03:06:21;13.90;55.50
24636;DHT22;12772;49.794;10.024;2023-04-24T03:10:23;13.90;55.50
24636;DHT22;12772;49.794;10.024;2023-04-24T03:14:25;14.00;55.60
24636;DHT22;12772;49.794;10.024;2023-04-24T03:18:27;13.90;55.50
24636;DHT22;12772;49.794;10.024;2023-04-24T03:22:29;13.90;55.50
24636;DHT22;12772;49.794;10.024;2023-04-24T03:26:33;13.90;55.30
24636;DHT22;12772;49.794;10.024;2023-04-24T03:30:35;13.90;55.50
24636;DHT22;12772;49.794;10.024;2023-04-24T03:34:37;13.90;55.50
24636;DHT22;12772;49.794;10.024;2023-04-24T03:38:39;13.90;55.40
24636;DHT22;12772;49.794;10.024;2023-04-24T03:42:42;13.90;55.40
24636;DHT22;12772;49.794;10.024;2023-04-24T03:46:44;13.90;55.50
24636;DHT22;12772;49.794;10.024;2023-04-24T03:50:46;13.90;55.50
24636;DHT22;12772;49.794;10.024;2023-04-24T03:54:48;13.90;55.50
24636;DHT22;12772;49.794;10.024;2023-04-24T03:58:50;13.90;55.50
24636;DHT22;12772;49.794;10.024;2023-04-24T04:02:52;13.90;55.20
24636;DHT22;12772;49.794;10.024;2023-04-24T04:06:54;13.90;55.10
24636;DHT22;12772;49.794;10.024;2023-04-24T04:10:57;13.80;54.80
24636;DHT22;12772;49.794;10.024;2023-04-24T04:14:59;13.80;55.10
24636;DHT22;12772;49.794;10.024;2023-04-24T04:19:02;13.70;55.10
24636;DHT22;12772;49.794;10.024;2023-04-24T04:23:04;13.70;55.10
24636;DHT22;12772;49.794;10.024;2023-04-24T04:27:07;13.70;55.10
24636;DHT22;12772;49.794;10.024;2023-04-24T04:31:09;13.70;55.20
24636;DHT22;12772;49.794;10.024;2023-04-24T04:35:12;13.70;55.20
24636;DHT22;12772;49.794;10.024;2023-04-24T04:39:14;13.70;55.30
24636;DHT22;12772;49.794;10.024;2023-04-24T04:43:17;13.70;55.20
24636;DHT22;12772;49.794;10.024;2023-04-24T04:47:21;13.70;55.30
24636;DHT22;12772;49.794;10.024;2023-04-24T04:51:24;13.70;55.50
24636;DHT22;12772;49.794;10.024;2023-04-24T04:55:26;13.70;55.40
24636;DHT22;12772;49.794;10.024;2023-04-24T04:59:28;13.60;55.60
24636;DHT22;12772;49.794;10.024;2023-04-24T05:03:30;13.60;56.10
24636;DHT22;12772;49.794;10.024;2023-04-24T05:07:33;13.50;56.60
24636;DHT22;12772;49.794;10.024;2023-04-24T05:11:35;13.50;57.30
24636;DHT22;12772;49.794;10.024;2023-04-24T05:15:37;13.40;57.30
24636;DHT22;12772;49.794;10.024;2023-04-24T05:19:39;13.30;57.90
24636;DHT22;12772;49.794;10.024;2023-04-24T05:23:41;13.20;58.20
24636;DHT22;12772;49.794;10.024;2023-04-24T05:27:43;13.40;58.70
24636;DHT22;12772;49.794;10.024;2023-04-24T05:31:47;13.30;58.10
24636;DHT22;12772;49.794;10.024;2023-04-24T05:35:49;13.20;57.70
24636;DHT22;12772;49.794;10.024;2023-04-24T05:39:51;13.30;57.60
24636;DHT22;12772;49.794;10.024;2023-04-24T05:43:53;13.20;56.90
24636;DHT22;12772;49.794;10.024;2023-04-24T05:47:55;13.30;56.60
24636;DHT22;12772;49.794;10.024;2023-04-24T05:51:57;13.20;57.20
24636;DHT22;12772;49.794;10.024;2023-04-24T05:55:59;13.20;56.30
24636;DHT22;12772;49.794;10.024;2023-04-24T06:00:02;13.20;55.40
24636;DHT22;12772;49.794;10.024;2023-04-24T06:04:05;13.20;55.40
24636;DHT22;12772;49.794;10.024;2023-04-24T06:08:07;13.10;54.60
24636;DHT22;12772;49.794;10.024;2023-04-24T06:12:09;13.10;54.40
24636;DHT22;12772;49.794;10.024;2023-04-24T06:16:11;13.10;54.40
24636;DHT22;12772;49.794;10.024;2023-04-24T06:20:14;13.10;54.50
24636;DHT22;12772;49.794;10.024;2023-04-24T06:24:16;13.10;54.20
24636;DHT22;12772;49.794;10.024;2023-04-24T06:28:18;13.20;54.00
24636;DHT22;12772;49.794;10.024;2023-04-24T06:32:22;13.20;53.90
24636;DHT22;12772;49.794;10.024;2023-04-24T06:36:24;13.30;53.10
24636;DHT22;12772;49.794;10.024;2023-04-24T06:40:27;13.40;52.70
24636;DHT22;12772;49.794;10.024;2023-04-24T06:44:29;13.40;52.60
24636;DHT22;12772;49.794;10.024;2023-04-24T06:48:31;13.40;52.10
24636;DHT22;12772;49.794;10.024;2023-04-24T06:52:33;13.40;50.20
24636;DHT22;12772;49.794;10.024;2023-04-24T06:56:36;13.50;50.20
24636;DHT22;12772;49.794;10.024;2023-04-24T07:00:38;13.60;48.60
24636;DHT22;12772;49.794;10.024;2023-04-24T07:04:40;13.50;47.70
24636;DHT22;12772;49.794;10.024;2023-04-24T07:08:42;13.50;47.70
24636;DHT22;12772;49.794;10.024;2023-04-24T07:12:44;13.60;47.80
24636;DHT22;12772;49.794;10.024;2023-04-24T07:16:47;13.50;46.50
24636;DHT22;12772;49.794;10.024;2023-04-24T07:20:49;13.60;47.20
24636;DHT22;12772;49.794;10.024;2023-04-24T07:24:51;13.70;46.20
24636;DHT22;12772;49.794;10.024;2023-04-24T07:28:53;13.80;45.20
24636;DHT22;12772;49.794;10.024;2023-04-24T07:32:56;13.90;44.70
24636;DHT22;12772;49.794;10.024;2023-04-24T07:36:58;14.00;44.70
24636;DHT22;12772;49.794;10.024;2023-04-24T07:41:00;14.10;44.00
24636;DHT22;12772;49.794;10.024;2023-04-24T07:45:02;14.10;43.70
24636;DHT22;12772;49.794;10.024;2023-04-24T07:49:04;14.10;43.70
24636;DHT22;12772;49.794;10.024;2023-04-24T07:53:06;14.20;43.50
24636;DHT22;12772;49.794;10.024;2023-04-24T07:57:08;14.10;43.30
24636;DHT22;12772;49.794;10.024;2023-04-24T08:01:10;14.20;43.90
24636;DHT22;12772;49.794;10.024;2023-04-24T08:05:13;14.20;43.20
24636;DHT22;12772;49.794;10.024;2023-04-24T08:09:15;14.30;43.90
24636;DHT22;12772;49.794;10.024;2023-04-24T08:13:17;14.30;42.80
24636;DHT22;12772;49.794;10.024;2023-04-24T08:17:19;14.30;42.60
24636;DHT22;12772;49.794;10.024;2023-04-24T08:21:22;14.40;42.70
24636;DHT22;12772;49.794;10.024;2023-04-24T08:25:24;14.40;42.60
24636;DHT22;12772;49.794;10.024;2023-04-24T08:29:26;14.50;42.00
24636;DHT22;12772;49.794;10.024;2023-04-24T08:33:28;14.40;41.60
24636;DHT22;12772;49.794;10.024;2023-04-24T08:37:35;14.40;41.00
24636;DHT22;12772;49.794;10.024;2023-04-24T08:41:37;14.30;41.20
24636;DHT22;12772;49.794;10.024;2023-04-24T08:45:40;14.30;42.20
24636;DHT22;12772;49.794;10.024;2023-04-24T08:49:43;14.20;42.20
24636;DHT22;12772;49.794;10.024;2023-04-24T08:53:46;14.10;43.30
24636;DHT22;12772;49.794;10.024;2023-04-24T08:57:51;14.00;43.80
24636;DHT22;12772;49.794;10.024;2023-04-24T09:01:55;13.90;45.10
24636;DHT22;12772;49.794;10.024;2023-04-24T09:05:58;13.80;46.00
24636;DHT22;12772;49.794;10.024;2023-04-24T09:10:02;13.70;44.80
24636;DHT22;12772;49.794;10.024;2023-04-24T09:14:04;13.70;45.10
24636;DHT22;12772;49.794;10.024;2023-04-24T09:18:06;13.70;43.70
24636;DHT22;12772;49.794;10.024;2023-04-24T09:22:09;13.80;43.30
24636;DHT22;12772;49.794;10.024;2023-04-24T09:26:11;13.90;41.80
24636;DHT22;12772;49.794;10.024;2023-04-24T09:30:21;14.00;41.70
24636;DHT22;12772;49.794;10.024;2023-04-24T09:34:25;14.20;41.70
24636;DHT22;12772;49.794;10.024;2023-04-24T09:38:31;14.40;41.10
24636;DHT22;12772;49.794;10.024;2023-04-24T09:42:33;14.60;39.60
24636;DHT22;12772;49.794;10.024;2023-04-24T09:46:36;14.70;39.50
24636;DHT22;12772;49.794;10.024;2023-04-24T09:50:38;14.80;38.80
24636;DHT22;12772;49.794;10.024;2023-04-24T09:54:46;15.00;38.70
24636;DHT22;12772;49.794;10.024;2023-04-24T09:58:54;15.10;38.50
24636;DHT22;12772;49.794;10.024;2023-04-24T10:03:00;15.20;37.00
24636;DHT22;12772;49.794;10.024;2023-04-24T10:07:03;15.30;37.40
24636;DHT22;12772;49.794;10.024;2023-04-24T10:11:07;15.40;36.40
24636;DHT22;12772;49.794;10.024;2023-04-24T10:15:11;15.50;36.10
24636;DHT22;12772;49.794;10.024;2023-04-24T10:19:15;15.50;36.10
24636;DHT22;12772;49.794;10.024;2023-04-24T10:23:17;15.50;36.20
24636;DHT22;12772;49.794;10.024;2023-04-24T10:27:21;15.50;36.10
24636;DHT22;12772;49.794;10.024;2023-04-24T10:31:24;15.60;36.20
24636;DHT22;12772;49.794;10.024;2023-04-24T10:35:30;15.70;36.40
24636;DHT22;12772;49.794;10.024;2023-04-24T10:39:33;15.40;35.80
24636;DHT22;12772;49.794;10.024;2023-04-24T10:43:36;15.50;36.10
24636;DHT22;12772;49.794;10.024;2023-04-24T10:47:41;15.60;35.10
24636;DHT22;12772;49.794;10.024;2023-04-24T10:51:50;15.50;33.70
24636;DHT22;12772;49.794;10.024;2023-04-24T11:00:20;15.20;33.20
24636;DHT22;12772;49.794;10.024;2023-04-24T11:04:33;15.00;34.10
24636;DHT22;12772;49.794;10.024;2023-04-24T11:08:43;14.90;35.20
24636;DHT22;12772;49.794;10.024;2023-04-24T11:12:46;14.90;35.50
24636;DHT22;12772;49.794;10.024;2023-04-24T11:16:53;14.80;35.40
24636;DHT22;12772;49.794;10.024;2023-04-24T11:20:55;14.80;35.40
24636;DHT22;12772;49.794;10.024;2023-04-24T11:25:00;14.70;35.20
24636;DHT22;12772;49.794;10.024;2023-04-24T11:29:07;14.70;35.20
24636;DHT22;12772;49.794;10.024;2023-04-24T11:33:09;14.60;35.20
24636;DHT22;12772;49.794;10.024;2023-04-24T11:37:11;14.60;35.10
24636;DHT22;12772;49.794;10.024;2023-04-24T11:41:14;14.60;35.80
24636;DHT22;12772;49.794;10.024;2023-04-24T11:45:23;14.60;36.10
24636;DHT22;12772;49.794;10.024;2023-04-24T11:49:25;14.80;35.50
24636;DHT22;12772;49.794;10.024;2023-04-24T11:53:27;14.50;35.10
24636;DHT22;12772;49.794;10.024;2023-04-24T11:57:29;14.60;36.50
24636;DHT22;12772;49.794;10.024;2023-04-24T12:01:43;14.50;36.80
24636;DHT22;12772;49.794;10.024;2023-04-24T12:05:46;14.60;37.30
24636;DHT22;12772;49.794;10.024;2023-04-24T12:09:59;14.50;37.10
24636;DHT22;12772;49.794;10.024;2023-04-24T12:14:11;14.40;39.20
24636;DHT22;12772;49.794;10.024;2023-04-24T12:18:13;14.40;41.70
24636;DHT22;12772;49.794;10.024;2023-04-24T12:22:17;14.50;40.60
24636;DHT22;12772;49.794;10.024;2023-04-24T12:26:20;14.70;39.90
24636;DHT22;12772;49.794;10.024;2023-04-24T12:30:27;15.10;38.80
24636;DHT22;12772;49.794;10.024;2023-04-24T12:34:31;15.50;37.80
24636;DHT22;12772;49.794;10.024;2023-04-24T12:38:33;15.80;36.50
24636;DHT22;12772;49.794;10.024;2023-04-24T12:42:49;15.90;35.20
24636;DHT22;12772;49.794;10.024;2023-04-24T12:46:51;16.00;35.10
24636;DHT22;12772;49.794;10.024;2023-04-24T12:50:53;16.10;34.10
24636;DHT22;12772;49.794;10.024;2023-04-24T12:54:57;16.10;33.30
24636;DHT22;12772;49.794;10.024;2023-04-24T12:59:00;16.20;33.60
24636;DHT22;12772;49.794;10.024;2023-04-24T13:03:05;16.10;32.90
24636;DHT22;12772;49.794;10.024;2023-04-24T13:07:07;15.90;32.40
24636;DHT22;12772;49.794;10.024;2023-04-24T13:11:10;15.70;33.40
24636;DHT22;12772;49.794;10.024;2023-04-24T13:15:12;15.70;34.20
24636;DHT22;12772;49.794;10.024;2023-04-24T13:19:14;15.50;34.20
24636;DHT22;12772;49.794;10.024;2023-04-24T13:23:16;15.50;34.40
24636;DHT22;12772;49.794;10.024;2023-04-24T13:27:19;15.30;34.00
24636;DHT22;12772;49.794;10.024;2023-04-24T13:31:21;15.10;34.70
24636;DHT22;12772;49.794;10.024;2023-04-24T13:35:23;15.10;35.70
24636;DHT22;12772;49.794;10.024;2023-04-24T13:39:26;15.10;35.70
24636;DHT22;12772;49.794;10.024;2023-04-24T13:43:28;15.10;35.70
24636;DHT22;12772;49.794;10.024;2023-04-24T13:47:30;15.30;35.40
24636;DHT22;12772;49.794;10.024;2023-04-24T13:51:33;15.40;35.10
24636;DHT22;12772;49.794;10.024;2023-04-24T13:55:35;15.50;35.30
24636;DHT22;12772;49.794;10.024;2023-04-24T13:59:38;15.50;34.80
24636;DHT22;12772;49.794;10.024;2023-04-24T14:03:41;15.40;34.00
24636;DHT22;12772;49.794;10.024;2023-04-24T14:07:44;15.40;34.20
24636;DHT22;12772;49.794;10.024;2023-04-24T14:11:46;15.30;35.10
24636;DHT22;12772;49.794;10.024;2023-04-24T14:15:48;15.30;35.90
24636;DHT22;12772;49.794;10.024;2023-04-24T14:19:50;14.80;36.80
24636;DHT22;12772;49.794;10.024;2023-04-24T14:23:53;14.60;37.40
24636;DHT22;12772;49.794;10.024;2023-04-24T14:27:55;14.40;40.10
24636;DHT22;12772;49.794;10.024;2023-04-24T14:31:57;14.30;41.90
24636;DHT22;12772;49.794;10.024;2023-04-24T14:36:00;14.10;42.30
24636;DHT22;12772;49.794;10.024;2023-04-24T14:40:04;14.20;43.40
24636;DHT22;12772;49.794;10.024;2023-04-24T14:44:07;14.30;42.30
24636;DHT22;12772;49.794;10.024;2023-04-24T14:48:09;14.50;40.00
24636;DHT22;12772;49.794;10.024;2023-04-24T14:52:12;14.70;39.60
24636;DHT22;12772;49.794;10.024;2023-04-24T14:56:14;14.90;38.90
24636;DHT22;12772;49.794;10.024;2023-04-24T15:00:17;15.00;38.80
24636;DHT22;12772;49.794;10.024;2023-04-24T15:04:21;15.20;38.40
24636;DHT22;12772;49.794;10.024;2023-04-24T15:08:23;15.20;37.60
24636;DHT22;12772;49.794;10.024;2023-04-24T15:12:26;15.20;37.30
24636;DHT22;12772;49.794;10.024;2023-04-24T15:16:29;15.20;37.40
24636;DHT22;12772;49.794;10.024;2023-04-24T15:20:33;15.30;36.90
24636;DHT22;12772;49.794;10.024;2023-04-24T15:24:38;15.30;37.10
24636;DHT22;12772;49.794;10.024;2023-04-24T15:28:40;15.40;37.20
24636;DHT22;12772;49.794;10.024;2023-04-24T15:32:42;15.50;36.60
24636;DHT22;12772;49.794;10.024;2023-04-24T15:36:45;15.40;36.10
24636;DHT22;12772;49.794;10.024;2023-04-24T15:40:47;15.50;36.20
24636;DHT22;12772;49.794;10.024;2023-04-24T15:44:50;15.50;35.50
24636;DHT22;12772;49.794;10.024;2023-04-24T15:48:53;15.50;33.80
24636;DHT22;12772;49.794;10.024;2023-04-24T15:52:55;15.40;33.90
24636;DHT22;12772;49.794;10.024;2023-04-24T15:56:57;15.40;33.60
24636;DHT22;12772;49.794;10.024;2023-04-24T16:01:00;15.30;32.90
24636;DHT22;12772;49.794;10.024;2023-04-24T16:05:02;15.20;32.90
24636;DHT22;12772;49.794;10.024;2023-04-24T16:09:05;15.10;33.10
24636;DHT22;12772;49.794;10.024;2023-04-24T16:13:08;15.10;33.40
24636;DHT22;12772;49.794;10.024;2023-04-24T16:17:10;15.20;33.40
24636;DHT22;12772;49.794;10.024;2023-04-24T16:21:12;15.30;33.60
24636;DHT22;12772;49.794;10.024;2023-04-24T16:25:14;15.40;33.60
24636;DHT22;12772;49.794;10.024;2023-04-24T16:29:17;15.50;33.30
24636;DHT22;12772;49.794;10.024;2023-04-24T16:33:20;15.30;33.20
24636;DHT22;12772;49.794;10.024;2023-04-24T16:37:22;15.30;33.60
24636;DHT22;12772;49.794;10.024;2023-04-24T16:41:24;15.30;34.40
24636;DHT22;12772;49.794;10.024;2023-04-24T16:45:26;15.40;34.80
24636;DHT22;12772;49.794;10.024;2023-04-24T16:49:29;15.40;34.60
24636;DHT22;12772;49.794;10.024;2023-04-24T16:53:32;15.30;34.40
24636;DHT22;12772;49.794;10.024;2023-04-24T16:57:34;15.20;34.90
24636;DHT22;12772;49.794;10.024;2023-04-24T17:01:36;15.10;34.70
24636;DHT22;12772;49.794;10.024;2023-04-24T17:05:39;15.00;35.40
24636;DHT22;12772;49.794;10.024;2023-04-24T17:09:41;15.00;35.60
24636;DHT22;12772;49.794;10.024;2023-04-24T17:13:44;14.90;35.50
24636;DHT22;12772;49.794;10.024;2023-04-24T17:17:46;15.00;35.60
24636;DHT22;12772;49.794;10.024;2023-04-24T17:21:48;14.80;35.40
24636;DHT22;12772;49.794;10.024;2023-04-24T17:25:50;14.80;35.40
24636;DHT22;12772;49.794;10.024;2023-04-24T17:29:52;14.70;35.20
24636;DHT22;12772;49.794;10.024;2023-04-24T17:33:54;14.70;35.00
24636;DHT22;12772;49.794;10.024;2023-04-24T17:37:57;14.60;35.10
24636;DHT22;12772;49.794;10.024;2023-04-24T17:42:00;14.60;35.10
24636;DHT22;12772;49.794;10.024;2023-04-24T17:46:02;14.60;36.10
24636;DHT22;12772;49.794;10.024;2023-04-24T17:50:04;14.60;36.50
24636;DHT22;12772;49.794;10.024;2023-04-24T17:54:07;14.50;37.50
24636;DHT22;12772;49.794;10.024;2023-04-24T17:58:09;14.40;37.10
24636;DHT22;12772;49.794;10.024;2023-04-24T18:02:11;14.30;37.60
24636;DHT22;12772;49.794;10.024;2023-04-24T18:06:16;14.20;37.90
24636;DHT22;12772;49.794;10.024;2023-04-24T18:10:22;14.20;38.30
24636;DHT22;12772;49.794;10.024;2023-04-24T18:14:25;14.10;38.40
24636;DHT22;12772;49.794;10.024;2023-04-24T18:18:28;14.00;38.80
24636;DHT22;12772;49.794;10.024;2023-04-24T18:22:30;13.90;39.00
24636;DHT22;12772;49.794;10.024;2023-04-24T18:26:32;13.90;39.40
24636;DHT22;12772;49.794;10.024;2023-04-24T18:30:34;13.90;39.50
24636;DHT22;12772;49.794;10.024;2023-04-24T18:34:36;13.80;39.80
24636;DHT22;12772;49.794;10.024;2023-04-24T18:38:39;13.80;40.20
24636;DHT22;12772;49.794;10.024;2023-04-24T18:42:41;13.70;40.50
24636;DHT22;12772;49.794;10.024;2023-04-24T18:46:43;13.70;40.70
24636;DHT22;12772;49.794;10.024;2023-04-24T18:50:45;13.90;41.10
24636;DHT22;12772;49.794;10.024;2023-04-24T18:54:47;13.60;40.90
24636;DHT22;12772;49.794;10.024;2023-04-24T18:58:50;13.60;41.00
24636;DHT22;12772;49.794;10.024;2023-04-24T19:02:54;13.60;41.00
24636;DHT22;12772;49.794;10.024;2023-04-24T19:06:56;14.00;41.70
24636;DHT22;12772;49.794;10.024;2023-04-24T19:10:59;13.50;41.40
24636;DHT22;12772;49.794;10.024;2023-04-24T19:15:01;14.00;42.10
24636;DHT22;12772;49.794;10.024;2023-04-24T19:19:03;13.40;41.80
24636;DHT22;12772;49.794;10.024;2023-04-24T19:23:06;13.40;41.60
24636;DHT22;12772;49.794;10.024;2023-04-24T19:27:08;13.30;41.70
24636;DHT22;12772;49.794;10.024;2023-04-24T19:31:10;13.30;41.90
24636;DHT22;12772;49.794;10.024;2023-04-24T19:35:12;13.20;41.90
24636;DHT22;12772;49.794;10.024;2023-04-24T19:39:14;13.20;41.90
24636;DHT22;12772;49.794;10.024;2023-04-24T19:43:17;13.20;41.90
24636;DHT22;12772;49.794;10.024;2023-04-24T19:47:19;13.20;42.20
24636;DHT22;12772;49.794;10.024;2023-04-24T19:51:21;13.20;42.40
24636;DHT22;12772;49.794;10.024;2023-04-24T19:55:24;13.20;42.50
24636;DHT22;12772;49.794;10.024;2023-04-24T19:59:26;13.20;42.70
24636;DHT22;12772;49.794;10.024;2023-04-24T20:03:28;13.10;42.40
24636;DHT22;12772;49.794;10.024;2023-04-24T20:07:30;13.20;42.60
24636;DHT22;12772;49.794;10.024;2023-04-24T20:11:33;13.10;42.70
24636;DHT22;12772;49.794;10.024;2023-04-24T20:15:35;13.10;42.90
24636;DHT22;12772;49.794;10.024;2023-04-24T20:19:37;13.10;43.10
24636;DHT22;12772;49.794;10.024;2023-04-24T20:23:40;13.10;43.00
24636;DHT22;12772;49.794;10.024;2023-04-24T20:27:42;13.10;43.10
24636;DHT22;12772;49.794;10.024;2023-04-24T20:31:45;13.00;43.30
24636;DHT22;12772;49.794;10.024;2023-04-24T20:35:47;13.00;43.30
24636;DHT22;12772;49.794;10.024;2023-04-24T20:39:51;13.00;43.50
24636;DHT22;12772;49.794;10.024;2023-04-24T20:43:53;13.00;43.60
24636;DHT22;12772;49.794;10.024;2023-04-24T20:47:55;13.00;43.90
24636;DHT22;12772;49.794;10.024;2023-04-24T20:51:57;12.90;44.10
24636;DHT22;12772;49.794;10.024;2023-04-24T20:56:00;12.90;44.50
24636;DHT22;12772;49.794;10.024;2023-04-24T21:00:03;12.90;44.80
24636;DHT22;12772;49.794;10.024;2023-04-24T21:04:07;12.80;46.00
24636;DHT22;12772;49.794;10.024;2023-04-24T21:08:09;12.80;46.90
24636;DHT22;12772;49.794;10.024;2023-04-24T21:12:11;12.80;47.00
24636;DHT22;12772;49.794;10.024;2023-04-24T21:16:13;12.80;47.40
24636;DHT22;12772;49.794;10.024;2023-04-24T21:20:16;12.70;48.40
24636;DHT22;12772;49.794;10.024;2023-04-24T21:24:18;12.70;49.00
24636;DHT22;12772;49.794;10.024;2023-04-24T21:28:20;12.70;49.60
24636;DHT22;12772;49.794;10.024;2023-04-24T21:32:30;12.70;49.80
24636;DHT22;12772;49.794;10.024;2023-04-24T21:36:38;12.70;50.10
24636;DHT22;12772;49.794;10.024;2023-04-24T21:40:40;12.60;50.20
24636;DHT22;12772;49.794;10.024;2023-04-24T21:44:42;12.70;51.20
24636;DHT22;12772;49.794;10.024;2023-04-24T21:48:45;12.60;50.80
24636;DHT22;12772;49.794;10.024;2023-04-24T21:52:47;12.50;50.80
24636;DHT22;12772;49.794;10.024;2023-04-24T21:56:49;12.50;51.70
24636;DHT22;12772;49.794;10.024;2023-04-24T22:00:51;12.50;50.60
24636;DHT22;12772;49.794;10.024;2023-04-24T22:04:53;12.40;50.70
24636;DHT22;12772;49.794;10.024;2023-04-24T22:08:55;12.40;51.00
24636;DHT22;12772;49.794;10.024;2023-04-24T22:12:58;12.40;50.90
24636;DHT22;12772;49.794;10.024;2023-04-24T22:17:00;12.30;50.90
24636;DHT22;12772;49.794;10.024;2023-04-24T22:21:03;12.40;50.90
24636;DHT22;12772;49.794;10.024;2023-04-24T22:25:05;12.40;50.70
24636;DHT22;12772;49.794;10.024;2023-04-24T22:29:07;12.40;50.90
24636;DHT22;12772;49.794;10.024;2023-04-24T22:33:09;12.30;50.80
24636;DHT22;12772;49.794;10.024;2023-04-24T22:37:12;12.40;50.90
24636;DHT22;12772;49.794;10.024;2023-04-24T22:41:14;12.40;50.60
24636;DHT22;12772;49.794;10.024;2023-04-24T22:45:17;12.30;50.50
24636;DHT22;12772;49.794;10.024;2023-04-24T22:49:23;12.30;50.50
24636;DHT22;12772;49.794;10.024;2023-04-24T22:53:27;12.30;50.70
24636;DHT22;12772;49.794;10.024;2023-04-24T22:57:29;12.30;50.80
24636;DHT22;12772;49.794;10.024;2023-04-24T23:01:31;12.30;50.80
24636;DHT22;12772;49.794;10.024;2023-04-24T23:05:33;12.20;50.80
24636;DHT22;12772;49.794;10.024;2023-04-24T23:09:35;11.80;50.40
24636;DHT22;12772;49.794;10.024;2023-04-24T23:13:37;12.00;50.70
24636;DHT22;12772;49.794;10.024;2023-04-24T23:17:40;12.20;50.90
24636;DHT22;12772;49.794;10.024;2023-04-24T23:21:44;12.20;50.80
24636;DHT22;12772;49.794;10.024;2023-04-24T23:25:47;12.20;50.90
24636;DHT22;12772;49.794;10.024;2023-04-24T23:29:49;11.70;50.30
24636;DHT22;12772;49.794;10.024;2023-04-24T23:33:51;12.10;50.80
24636;DHT22;12772;49.794;10.024;2023-04-24T23:37:54;12.20;50.80
24636;DHT22;12772;49.794;10.024;2023-04-24T23:41:56;12.20;50.60
24636;DHT22;12772;49.794;10.024;2023-04-24T23:45:59;12.10;50.60
24636;DHT22;12772;49.794;10.024;2023-04-24T23:50:01;12.10;50.70
24636;DHT22;12772;49.794;10.024;2023-04-24T23:54:03;12.10;50.80
24636;DHT22;12772;49.794;10.024;2023-04-24T23:58:06;12.00;50.80
